createdAt,value
2024-03-14T00:03:35.266Z,13.02
2024-03-14T00:08:39.123Z,13.00
2024-03-14T00:13:43.423Z,13.07
2024-03-14T00:18:48.913Z,13.12
2024-03-14T00:23:53.169Z,13.27
2024-03-14T00:28:56.743Z,13.23
2024-03-14T00:34:00.214Z,13.07
2024-03-14T00:39:04.043Z,12.92
2024-03-14T00:44:07.418Z,12.91
2024-03-14T00:49:10.863Z,13.15
2024-03-14T00:54:14.354Z,13.10
2024-03-14T00:59:17.953Z,13.05
2024-03-14T01:04:21.551Z,12.81
2024-03-14T01:09:27.487Z,12.88
2024-03-14T01:14:31.694Z,12.99
2024-03-14T01:19:35.099Z,12.95
2024-03-14T01:24:39.314Z,12.72
2024-03-14T01:29:42.677Z,12.67
2024-03-14T01:34:46.054Z,12.62
2024-03-14T01:39:50.659Z,12.57
2024-03-14T01:44:58.445Z,12.68
2024-03-14T01:50:03.049Z,12.48
2024-03-14T01:55:06.798Z,12.73
2024-03-14T02:00:12.751Z,12.41
2024-03-14T02:05:18.016Z,12.54
2024-03-14T02:10:25.834Z,12.48
2024-03-14T02:15:29.976Z,12.60
2024-03-14T02:20:33.676Z,12.48
2024-03-14T02:25:38.426Z,12.49
2024-03-14T02:30:42.602Z,12.35
2024-03-14T02:35:46.163Z,12.15
2024-03-14T02:40:49.561Z,12.32
2024-03-14T02:45:53.041Z,12.26
2024-03-14T02:50:56.954Z,12.21
2024-03-14T02:56:00.793Z,12.22
2024-03-14T03:01:10.249Z,12.22
2024-03-14T03:06:13.753Z,12.21
2024-03-14T03:11:17.714Z,11.99
2024-03-14T03:16:21.480Z,11.87
2024-03-14T03:21:25.196Z,11.80
2024-03-14T03:26:28.667Z,11.78
2024-03-14T03:31:32.036Z,11.84
2024-03-14T03:36:35.858Z,11.89
2024-03-14T03:41:39.260Z,11.75
2024-03-14T03:46:46.817Z,11.67
2024-03-14T03:51:50.192Z,11.54
2024-03-14T03:56:55.990Z,11.48
2024-03-14T04:01:59.499Z,11.41
2024-03-14T04:07:04.439Z,11.37
2024-03-14T04:12:08.520Z,11.47
2024-03-14T04:17:13.000Z,11.56
2024-03-14T04:22:16.812Z,11.66
2024-03-14T04:27:21.802Z,11.69
2024-03-14T04:32:25.183Z,11.83
2024-03-14T04:37:28.586Z,11.78
2024-03-14T04:42:32.026Z,11.74
2024-03-14T04:47:35.560Z,11.59
2024-03-14T04:52:38.973Z,11.64
2024-03-14T04:57:43.027Z,11.69
2024-03-14T05:02:46.355Z,11.51
2024-03-14T05:07:49.925Z,11.56
2024-03-14T05:12:53.632Z,11.51
2024-03-14T05:18:03.532Z,11.35
2024-03-14T05:23:07.160Z,11.47
2024-03-14T05:28:10.609Z,11.39
2024-03-14T05:33:14.479Z,11.39
2024-03-14T05:38:17.908Z,11.28
2024-03-14T05:43:22.343Z,11.21
2024-03-14T05:48:25.801Z,11.17
2024-03-14T05:53:32.374Z,11.15
2024-03-14T05:58:36.666Z,11.19
2024-03-14T06:03:43.751Z,11.16
2024-03-14T06:08:47.312Z,11.19
2024-03-14T06:13:52.270Z,11.22
2024-03-14T06:18:56.137Z,11.01
2024-03-14T06:23:59.549Z,11.01
2024-03-14T06:29:02.948Z,11.05
2024-03-14T06:34:06.938Z,10.85
2024-03-14T06:39:10.512Z,10.69
2024-03-14T06:44:15.425Z,10.55
2024-03-14T06:49:18.796Z,10.43
2024-03-14T06:54:22.696Z,10.46
2024-03-14T06:59:27.539Z,10.58
2024-03-14T07:04:35.066Z,10.45
2024-03-14T07:09:38.490Z,10.49
2024-03-14T07:14:42.749Z,10.40
2024-03-14T07:19:46.256Z,10.27
2024-03-14T07:24:49.830Z,10.23
2024-03-14T07:29:53.224Z,10.54
2024-03-14T07:34:57.155Z,10.91
2024-03-14T07:40:01.254Z,11.27
2024-03-14T07:45:04.742Z,11.42
2024-03-14T07:50:09.891Z,11.60
2024-03-14T07:55:13.467Z,11.49
2024-03-14T08:00:17.921Z,11.39
2024-03-14T08:05:21.762Z,11.46
2024-03-14T08:10:25.131Z,11.34
2024-03-14T08:15:37.243Z,11.25
2024-03-14T08:20:42.039Z,11.35
2024-03-14T08:25:45.409Z,11.51
2024-03-14T08:30:48.842Z,11.68
2024-03-14T08:35:52.297Z,11.82
2024-03-14T08:40:58.659Z,11.93
2024-03-14T08:46:02.791Z,11.99
2024-03-14T08:51:06.400Z,12.14
2024-03-14T08:56:10.186Z,12.42
2024-03-14T09:01:13.561Z,12.50
2024-03-14T09:06:17.514Z,12.50
2024-03-14T09:11:21.583Z,12.64
2024-03-14T09:16:24.984Z,12.79
2024-03-14T09:21:30.118Z,13.06
2024-03-14T09:26:33.663Z,13.17
2024-03-14T09:31:37.050Z,15.11
2024-03-14T09:36:40.480Z,14.76
2024-03-14T09:41:44.108Z,14.53
2024-03-14T09:46:47.976Z,14.49
2024-03-14T09:51:54.421Z,14.24
2024-03-14T09:56:57.858Z,14.23
2024-03-14T10:02:01.655Z,14.40
2024-03-14T10:07:05.141Z,14.92
2024-03-14T10:12:12.455Z,15.05
2024-03-14T10:17:17.394Z,15.69
2024-03-14T10:22:21.031Z,16.12
2024-03-14T10:27:24.444Z,17.50
2024-03-14T10:32:28.796Z,17.67
2024-03-14T10:37:32.329Z,16.57
2024-03-14T10:42:35.831Z,17.69
2024-03-14T10:47:39.497Z,16.77
2024-03-14T10:52:42.874Z,16.36
2024-03-14T10:57:46.500Z,15.78
2024-03-14T11:02:51.250Z,16.08
2024-03-14T11:07:54.401Z,15.87
2024-03-14T11:12:57.863Z,15.88
2024-03-14T11:18:01.765Z,15.94
2024-03-14T11:23:05.760Z,15.99
2024-03-14T11:28:09.460Z,16.14
2024-03-14T11:33:13.186Z,16.15
2024-03-14T11:38:26.182Z,16.39
2024-03-14T11:43:29.967Z,17.30
2024-03-14T11:48:35.306Z,17.68
2024-03-14T11:53:40.916Z,17.43
2024-03-14T11:58:45.688Z,17.48
2024-03-14T12:03:49.370Z,17.49
2024-03-14T12:08:53.621Z,17.44
2024-03-14T12:13:57.557Z,17.49
2024-03-14T12:19:02.614Z,18.32
2024-03-14T12:24:06.316Z,18.77
2024-03-14T12:29:10.873Z,21.34
2024-03-14T12:34:14.263Z,21.53
2024-03-14T12:39:17.677Z,21.63
2024-03-14T12:44:21.388Z,21.13
2024-03-14T12:49:24.812Z,20.60
2024-03-14T12:54:36.309Z,20.28
2024-03-14T12:59:39.733Z,20.05
2024-03-14T13:04:44.739Z,21.86
2024-03-14T13:10:05.821Z,21.46
2024-03-14T13:15:16.170Z,21.60
2024-03-14T13:20:20.259Z,21.56
2024-03-14T13:25:24.207Z,20.69
2024-03-14T13:30:27.841Z,20.65
2024-03-14T13:35:31.592Z,19.89
2024-03-14T13:40:36.277Z,19.63
2024-03-14T13:45:45.223Z,19.05
2024-03-14T13:50:49.229Z,18.68
2024-03-14T13:55:53.286Z,18.33
2024-03-14T14:00:58.028Z,18.08
2024-03-14T14:06:03.389Z,17.71
2024-03-14T14:11:06.853Z,17.55
2024-03-14T14:16:10.288Z,17.49
2024-03-14T14:21:13.765Z,17.56
2024-03-14T14:26:18.386Z,17.52
2024-03-14T14:31:23.004Z,17.38
2024-03-14T14:36:27.134Z,17.25
2024-03-14T14:41:30.728Z,17.29
2024-03-14T14:46:36.543Z,17.40
2024-03-14T14:51:39.985Z,17.38
2024-03-14T14:56:45.762Z,17.37
2024-03-14T15:01:49.289Z,17.49
2024-03-14T15:06:54.367Z,17.57
2024-03-14T15:11:58.096Z,17.61
2024-03-14T15:17:02.836Z,17.54
2024-03-14T15:22:06.536Z,17.57
2024-03-14T15:27:10.921Z,17.59
2024-03-14T15:32:14.320Z,17.57
2024-03-14T15:37:17.680Z,17.55
2024-03-14T15:42:21.242Z,17.50
2024-03-14T15:47:25.092Z,17.47
2024-03-14T15:52:28.513Z,17.46
2024-03-14T15:57:32.873Z,17.31
2024-03-14T16:02:39.462Z,17.27
2024-03-14T16:07:44.593Z,17.09
2024-03-14T16:12:48.144Z,16.87
2024-03-14T16:17:51.872Z,16.94
2024-03-14T16:22:55.919Z,16.94
2024-03-14T16:28:00.874Z,16.93
2024-03-14T16:33:04.830Z,16.83
2024-03-14T16:38:09.486Z,16.89
2024-03-14T16:43:12.898Z,16.86
2024-03-14T16:48:17.940Z,16.76
2024-03-14T16:53:21.908Z,16.70
2024-03-14T16:58:29.871Z,16.56
2024-03-14T17:03:33.415Z,16.50
2024-03-14T17:08:36.884Z,16.55
2024-03-14T17:13:40.879Z,16.39
2024-03-14T17:18:44.412Z,16.41
2024-03-14T17:23:47.828Z,16.37
2024-03-14T17:28:52.099Z,16.41
2024-03-14T17:33:56.749Z,16.41
2024-03-14T17:39:00.535Z,16.33
2024-03-14T17:44:03.991Z,16.09
2024-03-14T17:49:07.753Z,16.05
2024-03-14T17:54:11.498Z,16.02
2024-03-14T17:59:14.920Z,16.07
2024-03-14T18:04:23.447Z,16.09
2024-03-14T18:09:26.932Z,16.02
2024-03-14T18:14:30.867Z,16.01
2024-03-14T18:19:34.276Z,15.99
2024-03-14T18:24:38.595Z,15.97
2024-03-14T18:29:43.314Z,16.00
2024-03-14T18:34:47.103Z,15.88
2024-03-14T18:39:51.013Z,15.89
2024-03-14T18:44:56.609Z,15.75
2024-03-14T18:49:59.990Z,15.68
2024-03-14T18:55:04.068Z,15.60
2024-03-14T19:00:08.985Z,15.50
2024-03-14T19:05:14.102Z,15.50
2024-03-14T19:10:18.648Z,15.53
2024-03-14T19:15:22.921Z,15.44
2024-03-14T19:20:26.589Z,15.34
2024-03-14T19:25:30.152Z,15.29
2024-03-14T19:30:34.629Z,15.37
2024-03-14T19:35:38.048Z,15.32
2024-03-14T19:40:41.495Z,15.16
2024-03-14T19:45:46.448Z,15.22
2024-03-14T19:50:49.883Z,15.24
2024-03-14T19:55:54.232Z,15.13
2024-03-14T20:00:57.772Z,15.17
2024-03-14T20:06:02.318Z,15.19
2024-03-14T20:11:07.566Z,15.08
2024-03-14T20:16:16.228Z,15.14
2024-03-14T20:21:19.699Z,14.96
2024-03-14T20:26:23.238Z,14.82
2024-03-14T20:31:27.049Z,14.97
2024-03-14T20:36:30.826Z,15.03
2024-03-14T20:41:34.771Z,15.12
2024-03-14T20:46:38.525Z,15.07
2024-03-14T20:51:42.203Z,14.99
2024-03-14T20:56:46.432Z,15.08
2024-03-14T21:01:50.391Z,15.04
2024-03-14T21:06:54.236Z,15.11
2024-03-14T21:11:58.753Z,15.15
2024-03-14T21:17:02.294Z,15.18
2024-03-14T21:22:08.052Z,15.20
2024-03-14T21:27:12.833Z,15.17
2024-03-14T21:32:17.125Z,15.18
2024-03-14T21:37:21.256Z,14.98
2024-03-14T21:42:25.104Z,15.08
2024-03-14T21:47:29.167Z,14.93
2024-03-14T21:52:34.765Z,15.03
2024-03-14T21:57:38.810Z,15.00
2024-03-14T22:02:42.212Z,14.82
2024-03-14T22:07:46.299Z,14.89
2024-03-14T22:12:50.440Z,14.93
2024-03-14T22:17:54.005Z,14.98
2024-03-14T22:22:57.822Z,15.00
2024-03-14T22:28:01.204Z,15.01
2024-03-14T22:33:04.623Z,15.02
2024-03-14T22:38:08.542Z,15.02
2024-03-14T22:43:12.606Z,15.01
2024-03-14T22:48:16.113Z,14.99
2024-03-14T22:53:19.673Z,14.86
2024-03-14T22:58:25.385Z,14.94
2024-03-14T23:03:30.215Z,14.98
2024-03-14T23:08:34.150Z,14.93
2024-03-14T23:13:38.132Z,15.02
2024-03-14T23:18:42.276Z,14.84
2024-03-14T23:23:46.724Z,14.70
2024-03-14T23:28:51.646Z,14.65
2024-03-14T23:33:55.508Z,14.73
2024-03-14T23:38:59.107Z,14.77
2024-03-14T23:44:02.531Z,14.66
2024-03-14T23:49:06.464Z,14.60
2024-03-14T23:54:09.878Z,14.61
2024-03-14T23:59:14.213Z,14.64
